createdAt,value
2019-04-14T00:00:10.106Z,12.27
2019-04-14T00:02:42.784Z,11.87
2019-04-14T00:05:14.716Z,12.90
2019-04-14T00:07:44.948Z,11.87
2019-04-14T00:10:16.210Z,12.70
2019-04-14T00:12:46.951Z,12.07
2019-04-14T00:15:27.178Z,13.43
2019-04-14T00:17:47.958Z,13.77
2019-04-14T00:20:25.021Z,13.83
2019-04-14T00:22:55.501Z,13.27
2019-04-14T00:25:26.188Z,12.77
2019-04-14T00:27:56.434Z,13.20
2019-04-14T00:30:27.226Z,13.50
2019-04-14T00:32:59.435Z,12.43
2019-04-14T00:35:31.973Z,12.87
2019-04-14T00:38:04.212Z,11.97
2019-04-14T00:40:36.583Z,12.07
2019-04-14T00:43:09.122Z,13.13
2019-04-14T00:45:47.804Z,12.03
2019-04-14T00:48:16.665Z,14.10
2019-04-14T00:50:45.367Z,13.40
2019-04-14T00:53:16.341Z,14.20
2019-04-14T00:55:46.619Z,12.00
2019-04-14T00:58:17.456Z,12.03
2019-04-14T01:00:47.414Z,12.00
2019-04-14T01:03:17.735Z,11.43
2019-04-14T01:05:48.188Z,12.17
2019-04-14T01:08:18.509Z,13.33
2019-04-14T01:10:49.761Z,14.07
2019-04-14T01:13:20.120Z,13.30
2019-04-14T01:15:58.828Z,13.57
2019-04-14T01:18:21.291Z,14.40
2019-04-14T01:20:51.402Z,13.37
2019-04-14T01:23:21.563Z,13.53
2019-04-14T01:25:52.080Z,13.37
2019-04-14T01:28:22.204Z,12.43
2019-04-14T01:30:52.327Z,12.23
2019-04-14T01:33:22.839Z,11.50
2019-04-14T01:35:53.158Z,12.70
2019-04-14T01:38:23.348Z,14.53
2019-04-14T01:40:53.181Z,14.00
2019-04-14T01:43:23.507Z,14.13
2019-04-14T01:46:07.225Z,12.60
2019-04-14T01:48:24.275Z,13.40
2019-04-14T01:50:56.193Z,11.40
2019-04-14T01:53:27.435Z,12.17
2019-04-14T01:55:59.221Z,13.40
2019-04-14T01:58:31.740Z,12.00
2019-04-14T02:01:04.174Z,12.17
2019-04-14T02:03:34.517Z,10.37
2019-04-14T02:06:04.793Z,11.83
2019-04-14T02:08:35.149Z,12.10
2019-04-14T02:11:05.205Z,13.60
2019-04-14T02:13:35.525Z,10.97
2019-04-14T02:16:15.018Z,12.17
2019-04-14T02:18:36.265Z,13.23
2019-04-14T02:21:06.470Z,13.30
2019-04-14T02:23:36.579Z,13.13
2019-04-14T02:26:06.927Z,12.40
2019-04-14T02:28:37.535Z,11.67
2019-04-14T02:31:19.477Z,11.97
2019-04-14T02:33:58.237Z,10.50
2019-04-14T02:36:38.164Z,10.00
2019-04-14T02:44:15.760Z,11.83
2019-04-14T02:46:49.551Z,9.63
2019-04-14T02:49:16.843Z,11.50
2019-04-14T02:51:40.083Z,10.33
2019-04-14T02:54:19.789Z,9.13
2019-04-14T02:56:43.386Z,10.53
2019-04-14T02:59:17.230Z,11.47
2019-04-14T03:02:02.376Z,12.10
2019-04-14T03:04:19.840Z,13.57
2019-04-14T03:06:50.297Z,12.00
2019-04-14T03:09:31.514Z,10.87
2019-04-14T03:11:54.965Z,11.87
2019-04-14T03:14:22.482Z,10.40
2019-04-14T03:17:05.879Z,10.47
2019-04-14T03:19:38.293Z,11.60
2019-04-14T03:22:12.474Z,9.83
2019-04-14T03:24:32.097Z,10.63
2019-04-14T03:32:31.162Z,10.70
2019-04-14T03:34:52.274Z,11.63
2019-04-14T03:42:21.251Z,11.30
2019-04-14T03:44:49.444Z,11.83
2019-04-14T03:47:19.629Z,12.40
2019-04-14T03:50:00.794Z,12.27
2019-04-14T03:52:22.235Z,13.27
2019-04-14T03:54:45.523Z,11.83
2019-04-14T03:56:59.815Z,12.43
2019-04-14T03:59:30.305Z,14.50
2019-04-14T04:02:00.871Z,12.37
2019-04-14T04:04:31.542Z,11.53
2019-04-14T04:07:01.863Z,10.43
2019-04-14T04:09:34.269Z,10.40
2019-04-14T04:12:05.184Z,10.47
2019-04-14T04:14:35.717Z,9.57
2019-04-14T04:17:07.981Z,8.60
2019-04-14T04:19:39.122Z,10.70
2019-04-14T04:22:11.222Z,8.83
2019-04-14T04:24:43.314Z,9.83
2019-04-14T04:27:15.778Z,9.20
2019-04-14T04:29:48.454Z,9.77
2019-04-14T04:32:20.757Z,8.33
2019-04-14T04:34:51.321Z,8.10
2019-04-14T04:40:09.381Z,7.17
2019-04-14T04:42:41.627Z,7.13
2019-04-14T04:45:12.841Z,6.43
2019-04-14T04:47:43.375Z,7.53
2019-04-14T04:50:15.070Z,7.47
2019-04-14T04:52:45.162Z,7.33
2019-04-14T04:55:15.588Z,7.73
2019-04-14T04:57:46.004Z,8.00
2019-04-14T05:00:15.722Z,7.40
2019-04-14T05:02:46.072Z,7.43
2019-04-14T05:05:18.826Z,6.97
2019-04-14T05:07:49.077Z,7.27
2019-04-14T05:10:20.250Z,6.80
2019-04-14T05:12:52.212Z,6.67
2019-04-14T05:15:24.737Z,6.53
2019-04-14T05:17:54.381Z,6.10
2019-04-14T05:20:24.892Z,6.80
2019-04-14T05:22:55.041Z,6.20
2019-04-14T05:25:25.421Z,6.17
2019-04-14T05:27:56.061Z,6.43
2019-04-14T05:30:26.457Z,6.13
2019-04-14T05:32:56.525Z,6.63
2019-04-14T05:35:27.003Z,6.07
2019-04-14T05:37:57.310Z,7.10
2019-04-14T05:40:27.841Z,6.27
2019-04-14T05:42:58.001Z,6.57
2019-04-14T05:45:28.512Z,6.30
2019-04-14T05:47:58.880Z,6.07
2019-04-14T05:50:29.268Z,5.83
2019-04-14T05:52:59.958Z,6.40
2019-04-14T05:55:30.581Z,7.10
2019-04-14T05:58:01.342Z,6.97
2019-04-14T06:00:32.076Z,7.13
2019-04-14T06:03:01.787Z,7.10
2019-04-14T06:05:31.797Z,6.63
2019-04-14T06:08:01.507Z,7.13
2019-04-14T06:10:31.188Z,7.40
2019-04-14T06:13:01.161Z,6.73
2019-04-14T06:15:30.719Z,6.60
2019-04-14T06:18:00.528Z,6.87
2019-04-14T06:20:29.976Z,6.60
2019-04-14T06:22:59.393Z,6.97
2019-04-14T06:25:30.802Z,6.97
2019-04-14T06:28:00.261Z,6.40
2019-04-14T06:30:32.389Z,7.33
2019-04-14T06:33:03.474Z,6.63
2019-04-14T06:35:34.513Z,7.83
2019-04-14T06:38:06.024Z,7.20
2019-04-14T06:40:37.225Z,6.17
2019-04-14T06:43:06.860Z,7.20
2019-04-14T06:45:36.229Z,7.00
2019-04-14T06:48:07.739Z,6.90
2019-04-14T06:50:37.276Z,6.90
2019-04-14T06:53:06.719Z,6.10
2019-04-14T06:55:36.288Z,6.20
2019-04-14T06:58:05.778Z,6.50
2019-04-14T07:00:35.242Z,6.93
2019-04-14T07:03:04.822Z,6.13
2019-04-14T07:05:34.214Z,7.13
2019-04-14T07:08:03.750Z,7.03
2019-04-14T07:10:33.152Z,6.57
2019-04-14T07:13:02.698Z,6.17
2019-04-14T07:15:32.366Z,6.27
2019-04-14T07:18:01.943Z,5.47
2019-04-14T07:20:31.685Z,6.50
2019-04-14T07:23:01.164Z,6.17
2019-04-14T07:25:30.600Z,6.87
2019-04-14T07:28:00.119Z,6.20
2019-04-14T07:30:31.199Z,6.80
2019-04-14T07:33:02.303Z,7.13
2019-04-14T07:35:33.373Z,6.17
2019-04-14T07:38:05.728Z,7.40
2019-04-14T07:40:36.760Z,6.60
2019-04-14T07:43:07.926Z,7.70
2019-04-14T07:45:38.986Z,6.40
2019-04-14T07:48:10.034Z,7.27
2019-04-14T07:50:41.040Z,7.17
2019-04-14T07:53:12.049Z,6.77
2019-04-14T07:55:43.082Z,7.13
2019-04-14T07:58:15.217Z,6.87
2019-04-14T08:00:46.215Z,6.97
2019-04-14T08:03:17.357Z,6.07
2019-04-14T08:05:46.768Z,6.13
2019-04-14T08:08:16.150Z,5.83
2019-04-14T08:10:45.536Z,6.00
2019-04-14T08:13:14.866Z,6.10
2019-04-14T08:15:44.282Z,5.50
2019-04-14T08:18:13.689Z,5.40
2019-04-14T08:20:43.103Z,6.43
2019-04-14T08:23:12.489Z,5.97
2019-04-14T08:25:41.883Z,5.60
2019-04-14T08:28:11.235Z,5.87
2019-04-14T08:30:40.655Z,5.73
2019-04-14T08:33:10.024Z,6.03
2019-04-14T08:35:39.423Z,6.23
2019-04-14T08:38:08.848Z,6.67
2019-04-14T08:40:38.216Z,5.70
2019-04-14T08:43:09.202Z,6.00
2019-04-14T08:45:40.428Z,5.20
2019-04-14T08:48:11.502Z,5.60
2019-04-14T08:50:48.756Z,5.50
2019-04-14T08:53:19.755Z,5.33
2019-04-14T08:55:50.770Z,5.43
2019-04-14T08:58:21.772Z,5.40
2019-04-14T09:00:52.794Z,4.17
2019-04-14T09:03:21.913Z,5.67
2019-04-14T09:05:54.737Z,4.83
2019-04-14T09:08:25.740Z,5.33
2019-04-14T09:10:56.778Z,6.13
2019-04-14T09:13:26.124Z,5.23
2019-04-14T09:15:55.491Z,5.53
2019-04-14T09:18:24.861Z,5.17
2019-04-14T09:20:54.405Z,5.23
2019-04-14T09:23:23.828Z,5.47
2019-04-14T09:25:53.187Z,5.77
2019-04-14T09:28:22.562Z,5.67
2019-04-14T09:30:51.919Z,5.90
2019-04-14T09:33:21.334Z,6.00
2019-04-14T09:35:50.691Z,5.70
2019-04-14T09:38:20.096Z,6.17
2019-04-14T09:40:49.463Z,6.03
2019-04-14T09:43:18.855Z,5.70
2019-04-14T09:45:48.215Z,4.67
2019-04-14T09:48:17.621Z,4.87
2019-04-14T09:50:46.964Z,5.50
2019-04-14T09:53:16.379Z,6.43
2019-04-14T09:55:45.751Z,6.10
2019-04-14T09:58:15.122Z,5.67
2019-04-14T10:00:44.759Z,5.37
2019-04-14T10:03:14.311Z,5.60
2019-04-14T10:05:43.707Z,5.57
2019-04-14T10:08:13.050Z,5.97
2019-04-14T10:10:42.527Z,5.77
2019-04-14T10:13:11.973Z,5.93
2019-04-14T10:15:41.545Z,4.97
2019-04-14T10:18:11.140Z,5.27
2019-04-14T10:20:40.521Z,5.47
2019-04-14T10:23:10.022Z,5.50
2019-04-14T10:25:39.406Z,5.90
2019-04-14T10:28:08.931Z,4.93
2019-04-14T10:30:38.301Z,5.03
2019-04-14T10:33:07.868Z,5.53
2019-04-14T10:35:37.477Z,4.67
2019-04-14T10:38:06.870Z,4.97
2019-04-14T10:40:36.406Z,5.43
2019-04-14T10:43:06.109Z,5.67
2019-04-14T10:45:35.878Z,5.90
2019-04-14T10:48:05.458Z,5.40
2019-04-14T10:50:34.896Z,5.13
2019-04-14T10:53:04.409Z,5.17
2019-04-14T10:55:33.858Z,6.20
2019-04-14T10:58:03.419Z,5.67
2019-04-14T11:00:32.958Z,5.67
2019-04-14T11:03:02.382Z,5.63
2019-04-14T11:05:33.538Z,5.07
2019-04-14T11:08:02.982Z,5.50
2019-04-14T11:10:32.604Z,5.33
2019-04-14T11:13:02.392Z,5.00
2019-04-14T11:15:31.904Z,5.43
2019-04-14T11:18:01.319Z,5.17
2019-04-14T11:20:30.868Z,5.50
2019-04-14T11:23:03.562Z,5.73
2019-04-14T11:25:31.518Z,5.30
2019-04-14T11:28:00.986Z,5.73
2019-04-14T11:30:30.467Z,5.73
2019-04-14T11:33:01.555Z,5.77
2019-04-14T11:35:32.982Z,5.50
2019-04-14T11:38:04.160Z,5.20
2019-04-14T11:40:35.364Z,5.03
2019-04-14T11:43:04.851Z,5.30
2019-04-14T11:45:34.337Z,6.27
2019-04-14T11:48:03.938Z,4.70
2019-04-14T11:50:33.390Z,4.83
2019-04-14T11:53:02.940Z,5.27
2019-04-14T11:55:32.975Z,5.13
2019-04-14T11:58:02.444Z,5.03
2019-04-14T12:00:33.760Z,5.40
2019-04-14T12:03:04.904Z,6.03
2019-04-14T12:05:35.978Z,5.43
2019-04-14T12:08:08.142Z,5.97
2019-04-14T12:10:37.562Z,6.43
2019-04-14T12:13:07.113Z,6.23
2019-04-14T12:15:36.721Z,5.33
2019-04-14T12:18:06.270Z,5.77
2019-04-14T12:20:35.652Z,5.77
2019-04-14T12:23:05.192Z,5.77
2019-04-14T12:25:34.603Z,4.87
2019-04-14T12:28:04.748Z,6.13
2019-04-14T12:30:35.518Z,6.07
2019-04-14T12:33:05.233Z,5.73
2019-04-14T12:35:34.777Z,6.60
2019-04-14T12:38:04.351Z,5.37
2019-04-14T12:40:34.083Z,5.10
2019-04-14T12:43:05.307Z,5.67
2019-04-14T12:45:37.473Z,5.80
2019-04-14T12:48:08.473Z,5.63
2019-04-14T12:50:39.606Z,5.93
2019-04-14T12:53:08.948Z,6.80
2019-04-14T12:55:38.370Z,6.10
2019-04-14T12:58:11.231Z,6.40
2019-04-14T13:00:42.279Z,5.90
2019-04-14T13:03:11.650Z,7.17
2019-04-14T13:05:41.097Z,6.83
2019-04-14T13:08:10.545Z,6.60
2019-04-14T13:10:48.692Z,6.70
2019-04-14T13:13:18.097Z,6.20
2019-04-14T13:16:06.790Z,6.70
2019-04-14T13:18:36.207Z,6.90
2019-04-14T13:21:05.646Z,6.60
2019-04-14T13:23:35.009Z,7.03
2019-04-14T13:26:04.587Z,6.67
2019-04-14T13:28:33.954Z,6.67
2019-04-14T13:31:03.622Z,6.70
2019-04-14T13:33:33.247Z,6.17
2019-04-14T13:36:02.893Z,5.73
2019-04-14T13:38:32.442Z,6.37
2019-04-14T13:41:01.826Z,6.50
2019-04-14T13:43:31.251Z,6.10
2019-04-14T13:46:00.794Z,6.43
2019-04-14T13:48:30.209Z,6.33
2019-04-14T13:50:59.780Z,6.47
2019-04-14T13:53:29.308Z,7.07
2019-04-14T13:55:58.763Z,6.27
2019-04-14T13:58:28.220Z,7.13
2019-04-14T14:00:57.837Z,7.30
2019-04-14T14:03:27.342Z,6.97
2019-04-14T14:05:56.724Z,7.13
2019-04-14T14:08:26.136Z,6.97
2019-04-14T14:10:57.188Z,7.27
2019-04-14T14:13:26.354Z,7.10
2019-04-14T14:15:57.408Z,7.27
2019-04-14T14:18:28.529Z,7.27
2019-04-14T14:20:59.572Z,7.07
2019-04-14T14:23:30.628Z,6.97
2019-04-14T14:26:01.834Z,7.60
2019-04-14T14:28:31.293Z,6.80
2019-04-14T14:31:00.803Z,7.57
2019-04-14T14:33:30.279Z,7.03
2019-04-14T14:35:59.751Z,6.67
2019-04-14T14:38:29.260Z,7.70
2019-04-14T14:41:00.312Z,7.60
2019-04-14T14:43:29.812Z,7.63
2019-04-14T14:46:01.030Z,7.90
2019-04-14T14:48:32.071Z,7.10
2019-04-14T14:51:03.112Z,7.50
2019-04-14T14:53:32.610Z,7.33
2019-04-14T14:56:03.742Z,7.20
2019-04-14T14:58:35.055Z,6.77
2019-04-14T15:01:07.143Z,7.33
2019-04-14T15:03:36.619Z,7.00
2019-04-14T15:06:08.038Z,7.53
2019-04-14T15:08:37.443Z,6.07
2019-04-14T15:11:08.767Z,6.47
2019-04-14T15:13:38.259Z,6.60
2019-04-14T15:16:07.803Z,6.87
2019-04-14T15:18:37.429Z,6.70
2019-04-14T15:21:06.910Z,6.73
2019-04-14T15:23:36.328Z,6.73
2019-04-14T15:26:05.839Z,7.00
2019-04-14T15:28:35.257Z,6.70
2019-04-14T15:31:04.716Z,6.40
2019-04-14T15:33:34.209Z,6.87
2019-04-14T15:36:03.987Z,7.07
2019-04-14T15:38:33.388Z,7.10
2019-04-14T15:41:02.961Z,7.07
2019-04-14T15:43:32.381Z,7.40
2019-04-14T15:46:01.842Z,6.70
2019-04-14T15:48:31.234Z,7.13
2019-04-14T15:51:00.635Z,6.40
2019-04-14T15:53:37.750Z,5.87
2019-04-14T15:56:01.256Z,6.20
2019-04-14T15:58:32.380Z,5.47
2019-04-14T16:01:03.551Z,5.97
2019-04-14T16:03:34.619Z,6.70
2019-04-14T16:06:05.896Z,6.30
2019-04-14T16:08:37.005Z,6.10
2019-04-14T16:11:08.101Z,6.13
2019-04-14T16:13:37.704Z,6.20
2019-04-14T16:16:08.855Z,6.20
2019-04-14T16:18:39.987Z,6.10
2019-04-14T16:21:09.450Z,6.00
2019-04-14T16:23:49.957Z,5.80
2019-04-14T16:26:11.847Z,6.00
2019-04-14T16:28:42.952Z,6.03
2019-04-14T16:31:14.081Z,6.00
2019-04-14T16:33:45.366Z,6.17
2019-04-14T16:36:14.883Z,5.63
2019-04-14T16:38:44.410Z,5.93
2019-04-14T16:41:13.854Z,6.33
2019-04-14T16:43:43.343Z,5.27
2019-04-14T16:46:12.751Z,5.90
2019-04-14T16:48:44.150Z,5.93
2019-04-14T16:51:15.190Z,5.50
2019-04-14T16:53:46.380Z,6.13
2019-04-14T16:56:17.419Z,5.63
2019-04-14T16:58:48.676Z,5.40
2019-04-14T17:01:19.718Z,5.90
2019-04-14T17:03:49.155Z,6.00
2019-04-14T17:06:18.720Z,5.67
2019-04-14T17:08:48.205Z,5.90
2019-04-14T17:11:17.694Z,5.37
2019-04-14T17:13:48.912Z,5.60
2019-04-14T17:16:20.173Z,5.33
2019-04-14T17:18:51.474Z,5.37
2019-04-14T17:21:22.574Z,5.30
2019-04-14T17:23:53.746Z,6.47
2019-04-14T17:26:24.890Z,6.00
2019-04-14T17:28:55.979Z,6.57
2019-04-14T17:31:27.117Z,5.93
2019-04-14T17:33:58.151Z,5.80
2019-04-14T17:36:29.300Z,6.43
2019-04-14T17:39:00.450Z,7.27
2019-04-14T17:41:33.147Z,9.37
2019-04-14T17:44:04.216Z,8.10
2019-04-14T17:46:35.345Z,9.20
2019-04-14T17:49:06.483Z,10.67
2019-04-14T17:51:40.830Z,13.10
2019-04-14T17:54:11.941Z,11.93
2019-04-14T17:56:43.009Z,10.63
2019-04-14T17:59:14.022Z,9.17
2019-04-14T18:01:45.079Z,8.97
2019-04-14T18:04:17.781Z,8.63
2019-04-14T18:06:49.125Z,8.00
2019-04-14T18:09:20.201Z,8.70
2019-04-14T18:11:51.277Z,6.60
2019-04-14T18:14:22.375Z,8.27
2019-04-14T18:16:53.423Z,7.50
2019-04-14T18:19:26.078Z,8.90
2019-04-14T18:21:55.552Z,12.10
2019-04-14T18:24:25.009Z,22.73
2019-04-14T18:26:54.504Z,21.90
2019-04-14T18:29:25.609Z,22.03
2019-04-14T18:31:56.663Z,19.07
2019-04-14T18:34:27.680Z,18.20
2019-04-14T18:36:58.764Z,16.57
2019-04-14T18:39:29.939Z,12.50
2019-04-14T18:42:01.034Z,8.43
2019-04-14T18:44:32.190Z,8.00
2019-04-14T18:47:03.294Z,8.30
2019-04-14T18:49:34.435Z,8.93
2019-04-14T18:52:05.521Z,8.60
2019-04-14T18:54:36.652Z,9.80
2019-04-14T18:57:07.711Z,10.17
2019-04-14T18:59:38.874Z,9.70
2019-04-14T19:02:09.611Z,8.37
2019-04-14T19:04:39.191Z,10.20
2019-04-14T19:07:09.851Z,11.60
2019-04-14T19:09:39.313Z,9.30
2019-04-14T19:12:12.714Z,8.27
2019-04-14T19:14:42.969Z,7.20
2019-04-14T19:17:14.053Z,8.60
2019-04-14T19:19:45.069Z,8.10
2019-04-14T19:22:15.583Z,9.87
2019-04-14T19:24:44.987Z,12.87
2019-04-14T19:27:14.483Z,11.57
2019-04-14T19:29:43.918Z,10.00
2019-04-14T19:32:13.922Z,10.73
2019-04-14T19:34:43.624Z,10.87
2019-04-14T19:37:14.151Z,11.07
2019-04-14T19:39:43.561Z,10.30
2019-04-14T19:42:13.164Z,8.00
2019-04-14T19:44:42.743Z,7.90
2019-04-14T19:47:12.352Z,5.73
2019-04-14T19:49:41.828Z,5.10
2019-04-14T19:52:11.308Z,4.97
2019-04-14T19:54:40.814Z,4.53
2019-04-14T19:57:10.328Z,6.03
2019-04-14T19:59:39.700Z,5.07
2019-04-14T20:02:09.178Z,4.53
2019-04-14T20:04:38.564Z,4.00
2019-04-14T20:07:08.074Z,4.33
2019-04-14T20:09:37.588Z,4.40
2019-04-14T20:12:08.102Z,4.40
2019-04-14T20:14:37.683Z,4.27
2019-04-14T20:17:08.779Z,4.10
2019-04-14T20:19:39.873Z,4.03
2019-04-14T20:22:10.998Z,3.90
2019-04-14T20:24:42.178Z,4.00
2019-04-14T20:27:13.257Z,4.00
2019-04-14T20:29:47.063Z,3.47
2019-04-14T20:32:18.051Z,4.00
2019-04-14T20:34:47.561Z,3.53
2019-04-14T20:37:17.099Z,3.80
2019-04-14T20:39:46.616Z,4.83
2019-04-14T20:42:16.032Z,4.07
2019-04-14T20:44:45.545Z,4.07
2019-04-14T20:47:15.098Z,4.23
2019-04-14T20:49:44.637Z,3.90
2019-04-14T20:52:14.002Z,4.40
2019-04-14T20:54:43.423Z,4.20
2019-04-14T20:57:12.803Z,4.70
2019-04-14T20:59:42.329Z,6.93
2019-04-14T21:02:13.514Z,6.20
2019-04-14T21:04:44.653Z,6.50
2019-04-14T21:07:15.722Z,6.00
2019-04-14T21:09:46.740Z,10.13
2019-04-14T21:12:17.776Z,9.87
2019-04-14T21:14:48.960Z,7.40
2019-04-14T21:17:20.028Z,6.27
2019-04-14T21:19:51.051Z,5.67
2019-04-14T21:22:22.173Z,4.40
2019-04-14T21:24:53.208Z,4.37
2019-04-14T21:27:24.304Z,4.00
2019-04-14T21:29:55.392Z,4.17
2019-04-14T21:32:26.409Z,4.40
2019-04-14T21:34:56.694Z,3.60
2019-04-14T21:37:27.864Z,4.07
2019-04-14T21:39:59.026Z,4.80
2019-04-14T21:42:28.604Z,4.80
2019-04-14T21:44:57.970Z,5.37
2019-04-14T21:47:27.480Z,4.93
2019-04-14T21:49:57.016Z,4.87
2019-04-14T21:52:28.152Z,4.33
2019-04-14T21:54:57.620Z,4.07
2019-04-14T21:57:28.727Z,4.07
2019-04-14T21:59:58.101Z,4.00
2019-04-14T22:02:29.317Z,4.87
2019-04-14T22:05:00.598Z,4.83
2019-04-14T22:07:31.702Z,4.87
2019-04-14T22:10:02.822Z,5.10
2019-04-14T22:12:33.686Z,5.03
2019-04-14T22:15:03.147Z,4.63
2019-04-14T22:17:32.834Z,4.20
2019-04-14T22:20:02.483Z,3.90
2019-04-14T22:22:32.144Z,4.27
2019-04-14T22:25:01.606Z,4.63
2019-04-14T22:27:31.227Z,4.47
2019-04-14T22:30:00.653Z,4.83
2019-04-14T22:32:30.137Z,5.20
2019-04-14T22:34:59.676Z,5.90
2019-04-14T22:37:29.218Z,5.37
2019-04-14T22:39:58.725Z,5.60
2019-04-14T22:42:28.277Z,5.50
2019-04-14T22:44:57.809Z,5.13
2019-04-14T22:47:27.305Z,4.90
2019-04-14T22:49:56.681Z,4.93
2019-04-14T22:52:26.124Z,4.70
2019-04-14T22:54:55.575Z,4.30
2019-04-14T22:57:25.255Z,4.50
2019-04-14T22:59:54.711Z,4.40
2019-04-14T23:02:25.957Z,4.83
2019-04-14T23:04:57.174Z,4.67
2019-04-14T23:07:28.316Z,4.50
2019-04-14T23:09:59.387Z,4.70
2019-04-14T23:12:30.515Z,4.60
2019-04-14T23:15:01.563Z,5.10
2019-04-14T23:17:32.817Z,5.00
2019-04-14T23:20:16.893Z,4.40
2019-04-14T23:22:47.914Z,5.20
2019-04-14T23:25:17.405Z,4.73
2019-04-14T23:27:46.908Z,5.23
2019-04-14T23:30:16.828Z,5.37
2019-04-14T23:32:46.252Z,5.27
2019-04-14T23:35:15.645Z,5.93
2019-04-14T23:37:45.040Z,5.13
2019-04-14T23:40:14.748Z,5.93
2019-04-14T23:42:44.250Z,5.20
2019-04-14T23:45:14.230Z,5.80
2019-04-14T23:47:43.676Z,5.30
2019-04-14T23:50:13.490Z,5.50
2019-04-14T23:52:43.087Z,6.30
2019-04-14T23:55:12.656Z,6.27
2019-04-14T23:57:42.189Z,6.40
